Terminal Aerodrome Forecast
Issued by NWS

Home | Current Version | Previous Version | Graphics & Text | Print | Product List | Glossary On
Versions: 1 2 3 4 5 6 7 8 9 10 11 12
000
FTUS45 KGGW 240520
TAFSDY
TAF
KSDY 240520Z 2406/2506 31007KT P6SM FEW090
     FM241700 33011G20KT P6SM FEW110
     FM250300 01006KT P6SM FEW120=

USA.gov is the U.S. government's official web portal to all federal, state and local government web resources and services.